createdAt,value
2023-02-25T00:00:38.070Z,-0.35
2023-02-25T00:03:05.931Z,-0.30
2023-02-25T00:05:33.759Z,-0.26
2023-02-25T00:08:01.546Z,-0.24
2023-02-25T00:10:29.209Z,-0.22
2023-02-25T00:13:12.160Z,-0.22
2023-02-25T00:15:44.905Z,-0.20
2023-02-25T00:18:12.556Z,-0.19
2023-02-25T00:20:41.014Z,-0.16
2023-02-25T00:23:08.662Z,-0.15
2023-02-25T00:25:36.384Z,-0.13
2023-02-25T00:28:06.401Z,-0.15
2023-02-25T00:30:34.173Z,-0.13
2023-02-25T00:33:02.137Z,-0.11
2023-02-25T00:35:29.888Z,-0.11
2023-02-25T00:38:13.682Z,-0.11
2023-02-25T00:40:43.467Z,-0.07
2023-02-25T00:43:12.626Z,-0.06
2023-02-25T00:45:40.770Z,-0.02
2023-02-25T00:48:08.519Z,-0.04
2023-02-25T00:50:36.582Z,-0.03
2023-02-25T00:53:04.308Z,0.00
2023-02-25T00:55:33.649Z,-0.04
2023-02-25T00:58:02.107Z,-0.03
2023-02-25T01:00:35.881Z,-0.03
2023-02-25T01:03:08.363Z,-0.03
2023-02-25T01:05:41.287Z,-0.05
2023-02-25T01:08:08.984Z,-0.06
2023-02-25T01:10:36.712Z,-0.04
2023-02-25T01:13:04.912Z,-0.05
2023-02-25T01:15:33.944Z,-0.05
2023-02-25T01:18:01.675Z,-0.06
2023-02-25T01:20:29.954Z,-0.06
2023-02-25T01:22:57.745Z,-0.05
2023-02-25T01:25:25.971Z,-0.08
2023-02-25T01:27:55.811Z,-0.07
2023-02-25T01:30:23.791Z,-0.07
2023-02-25T01:32:52.891Z,-0.06
2023-02-25T01:35:20.630Z,-0.05
2023-02-25T01:37:49.909Z,-0.07
2023-02-25T01:40:18.107Z,-0.07
2023-02-25T01:42:46.253Z,-0.06
2023-02-25T01:45:25.439Z,-0.04
2023-02-25T01:47:56.836Z,-0.05
2023-02-25T01:50:26.415Z,-0.03
2023-02-25T01:52:55.049Z,-0.06
2023-02-25T01:55:22.763Z,-0.03
2023-02-25T01:57:50.712Z,-0.04
2023-02-25T02:00:18.758Z,-0.03
2023-02-25T02:02:47.835Z,-0.05
2023-02-25T02:05:17.266Z,-0.07
2023-02-25T02:07:44.930Z,-0.06
2023-02-25T02:10:12.767Z,-0.09
2023-02-25T02:12:43.185Z,-0.11
2023-02-25T02:15:13.018Z,-0.12
2023-02-25T02:17:43.873Z,-0.12
2023-02-25T02:20:20.554Z,-0.13
2023-02-25T02:22:55.318Z,-0.14
2023-02-25T02:25:51.545Z,-0.14
2023-02-25T02:28:37.309Z,-0.19
2023-02-25T02:31:18.558Z,-0.24
2023-02-25T02:33:50.029Z,-0.26
2023-02-25T02:36:20.620Z,-0.27
2023-02-25T02:38:51.421Z,-0.31
2023-02-25T02:41:21.925Z,-0.33
2023-02-25T02:43:53.626Z,-0.35
2023-02-25T02:46:24.986Z,-0.35
2023-02-25T02:48:56.284Z,-0.36
2023-02-25T02:51:25.896Z,-0.37
2023-02-25T02:53:55.587Z,-0.37
2023-02-25T02:56:25.033Z,-0.40
2023-02-25T02:58:54.612Z,-0.41
2023-02-25T03:01:27.273Z,-0.42
2023-02-25T03:03:59.942Z,-0.42
2023-02-25T03:06:30.915Z,-0.44
2023-02-25T03:09:03.530Z,-0.45
2023-02-25T03:11:31.350Z,-0.44
2023-02-25T03:13:59.092Z,-0.44
2023-02-25T03:16:30.976Z,-0.44
2023-02-25T03:19:00.574Z,-0.45
2023-02-25T03:21:33.302Z,-0.45
2023-02-25T03:24:02.512Z,-0.45
2023-02-25T03:26:33.407Z,-0.44
2023-02-25T03:29:01.178Z,-0.45
2023-02-25T03:31:31.424Z,-0.46
2023-02-25T03:34:00.761Z,-0.50
2023-02-25T03:36:31.348Z,-0.53
2023-02-25T03:39:00.584Z,-0.60
2023-02-25T03:41:31.555Z,-0.63
2023-02-25T03:44:00.306Z,-0.63
2023-02-25T03:46:28.779Z,-0.65
2023-02-25T03:48:58.821Z,-0.67
2023-02-25T03:51:29.281Z,-0.70
2023-02-25T03:53:57.432Z,-0.69
2023-02-25T03:56:25.397Z,-0.72
2023-02-25T03:58:53.332Z,-0.72
2023-02-25T04:01:24.242Z,-0.74
2023-02-25T04:03:51.946Z,-0.75
2023-02-25T04:06:24.194Z,-0.77
2023-02-25T04:08:52.239Z,-0.81
2023-02-25T04:11:20.049Z,-0.82
2023-02-25T04:13:47.751Z,-0.83
2023-02-25T04:16:15.451Z,-0.82
2023-02-25T04:18:43.244Z,-0.85
2023-02-25T04:21:11.467Z,-0.81
2023-02-25T04:23:40.513Z,-0.80
2023-02-25T04:26:08.148Z,-0.80
2023-02-25T04:28:35.747Z,-0.83
2023-02-25T04:31:03.505Z,-0.81
2023-02-25T04:33:31.512Z,-0.80
2023-02-25T04:35:59.204Z,-0.79
2023-02-25T04:38:26.936Z,-0.79
2023-02-25T04:40:55.960Z,-0.77
2023-02-25T04:43:23.680Z,-0.77
2023-02-25T04:45:51.368Z,-0.74
2023-02-25T04:48:24.333Z,-0.73
2023-02-25T04:50:53.020Z,-0.76
2023-02-25T04:53:20.808Z,-0.76
2023-02-25T04:55:48.532Z,-0.75
2023-02-25T04:58:17.567Z,-0.75
2023-02-25T05:00:48.496Z,-0.78
2023-02-25T05:03:16.249Z,-0.78
2023-02-25T05:05:43.935Z,-0.81
2023-02-25T05:08:11.561Z,-0.84
2023-02-25T05:10:39.270Z,-0.85
2023-02-25T05:13:06.985Z,-0.84
2023-02-25T05:15:36.084Z,-0.87
2023-02-25T05:18:03.768Z,-0.87
2023-02-25T05:20:31.530Z,-0.88
2023-02-25T05:22:59.227Z,-0.90
2023-02-25T05:25:26.918Z,-0.90
2023-02-25T05:27:54.531Z,-0.91
2023-02-25T05:30:22.302Z,-0.89
2023-02-25T05:32:51.476Z,-0.90
2023-02-25T05:35:20.086Z,-0.95
2023-02-25T05:37:47.756Z,-0.99
2023-02-25T05:40:15.720Z,-0.99
2023-02-25T05:42:43.397Z,-1.00
2023-02-25T05:45:11.523Z,-1.00
2023-02-25T05:47:39.246Z,-1.01
2023-02-25T05:50:08.893Z,-1.01
2023-02-25T05:52:36.574Z,-1.04
2023-02-25T05:55:04.605Z,-1.04
2023-02-25T05:57:32.311Z,-1.04
2023-02-25T05:59:59.924Z,-1.04
2023-02-25T06:02:27.716Z,-1.05
2023-02-25T06:04:55.444Z,-1.07
2023-02-25T06:07:24.576Z,-1.05
2023-02-25T06:09:52.253Z,-1.09
2023-02-25T06:12:19.857Z,-1.13
2023-02-25T06:14:47.476Z,-1.18
2023-02-25T06:17:15.207Z,-1.17
2023-02-25T06:19:42.919Z,-1.17
2023-02-25T06:22:10.546Z,-1.18
2023-02-25T06:24:40.703Z,-1.23
2023-02-25T06:27:08.357Z,-1.23
2023-02-25T06:29:36.073Z,-1.26
2023-02-25T06:32:03.897Z,-1.28
2023-02-25T06:34:33.375Z,-1.33
2023-02-25T06:37:01.947Z,-1.31
2023-02-25T06:39:29.728Z,-1.37
2023-02-25T06:41:58.791Z,-1.39
2023-02-25T06:44:27.118Z,-1.38
2023-02-25T06:46:56.011Z,-1.39
2023-02-25T06:49:23.896Z,-1.39
2023-02-25T06:51:51.658Z,-1.37
2023-02-25T06:54:19.819Z,-1.38
2023-02-25T06:56:47.640Z,-1.36
2023-02-25T06:59:16.677Z,-1.35
2023-02-25T07:01:44.396Z,-1.36
2023-02-25T07:04:15.555Z,-1.36
2023-02-25T07:06:43.390Z,-1.35
2023-02-25T07:09:11.054Z,-1.33
2023-02-25T07:11:38.773Z,-1.31
2023-02-25T07:14:07.212Z,-1.27
2023-02-25T07:16:36.290Z,-1.26
2023-02-25T07:19:04.189Z,-1.23
2023-02-25T07:21:31.886Z,-1.22
2023-02-25T07:23:59.670Z,-1.21
2023-02-25T07:26:28.589Z,-1.16
2023-02-25T07:28:57.159Z,-1.15
2023-02-25T07:31:26.153Z,-1.13
2023-02-25T07:33:56.901Z,-1.14
2023-02-25T07:36:27.250Z,-1.17
2023-02-25T07:38:54.909Z,-1.15
2023-02-25T07:41:23.345Z,-1.16
2023-02-25T07:43:51.278Z,-1.14
2023-02-25T07:46:18.989Z,-1.12
2023-02-25T07:48:46.736Z,-1.07
2023-02-25T07:51:18.548Z,-1.04
2023-02-25T07:53:46.580Z,-1.03
2023-02-25T07:56:14.560Z,-1.00
2023-02-25T07:58:42.531Z,-1.05
2023-02-25T08:01:10.739Z,-1.03
2023-02-25T08:03:38.972Z,-1.05
2023-02-25T08:06:08.685Z,-1.04
2023-02-25T08:08:37.962Z,-1.06
2023-02-25T08:11:06.304Z,-1.09
2023-02-25T08:13:35.204Z,-1.05
2023-02-25T08:16:05.227Z,-1.04
2023-02-25T08:18:32.895Z,-1.01
2023-02-25T08:21:02.761Z,-0.99
2023-02-25T08:23:30.797Z,-0.96
2023-02-25T08:26:00.478Z,-0.92
2023-02-25T08:28:34.301Z,-0.93
2023-02-25T08:31:04.236Z,-0.88
2023-02-25T08:33:32.282Z,-0.88
2023-02-25T08:36:06.892Z,-0.83
2023-02-25T08:38:34.518Z,-0.79
2023-02-25T08:41:03.634Z,-0.77
2023-02-25T08:43:32.122Z,-0.75
2023-02-25T08:46:01.279Z,-0.78
2023-02-25T08:48:29.162Z,-0.77
2023-02-25T08:50:56.880Z,-0.80
2023-02-25T08:53:24.611Z,-0.79
2023-02-25T08:55:56.409Z,-0.78
2023-02-25T08:58:25.511Z,-0.74
2023-02-25T09:00:55.243Z,-0.74
2023-02-25T09:03:23.109Z,-0.74
2023-02-25T09:05:52.049Z,-0.73
2023-02-25T09:08:20.066Z,-0.73
2023-02-25T09:10:50.673Z,-0.73
2023-02-25T09:13:18.651Z,-0.72
2023-02-25T09:15:47.697Z,-0.74
2023-02-25T09:18:15.302Z,-0.75
2023-02-25T09:20:43.014Z,-0.76
2023-02-25T09:23:11.246Z,-0.78
2023-02-25T09:25:39.784Z,-0.79
2023-02-25T09:28:08.170Z,-0.77
2023-02-25T09:30:35.913Z,-0.77
2023-02-25T09:33:05.430Z,-0.81
2023-02-25T09:35:33.338Z,-0.78
2023-02-25T09:38:00.996Z,-0.80
2023-02-25T09:40:28.717Z,-0.81
2023-02-25T09:43:06.419Z,-0.82
2023-02-25T09:45:35.014Z,-0.84
2023-02-25T09:48:04.614Z,-0.89
2023-02-25T09:50:38.235Z,-0.95
2023-02-25T09:53:08.589Z,-0.94
2023-02-25T09:55:40.335Z,-0.96
2023-02-25T09:58:09.945Z,-0.96
2023-02-25T10:00:41.513Z,-0.97
2023-02-25T10:03:13.816Z,-0.95
2023-02-25T10:05:48.239Z,-0.90
2023-02-25T10:08:20.958Z,-0.88
2023-02-25T10:10:52.511Z,-0.85
2023-02-25T10:13:25.367Z,-0.80
2023-02-25T10:15:57.012Z,-0.79
2023-02-25T10:18:31.768Z,-0.75
2023-02-25T10:21:07.742Z,-0.72
2023-02-25T10:23:42.433Z,-0.71
2023-02-25T10:26:15.489Z,-0.70
2023-02-25T10:28:44.853Z,-0.67
2023-02-25T10:31:15.597Z,-0.60
2023-02-25T10:33:45.901Z,-0.57
2023-02-25T10:36:17.899Z,-0.59
2023-02-25T10:38:46.822Z,-0.60
2023-02-25T10:41:14.942Z,-0.56
2023-02-25T10:43:43.271Z,-0.64
2023-02-25T10:46:14.307Z,-0.59
2023-02-25T10:48:43.328Z,-0.57
2023-02-25T10:51:12.240Z,-0.51
2023-02-25T10:53:41.720Z,-0.46
2023-02-25T10:56:10.895Z,-0.48
2023-02-25T10:58:40.838Z,-0.44
2023-02-25T11:01:13.714Z,-0.36
2023-02-25T11:03:54.949Z,-0.34
2023-02-25T11:06:26.901Z,-0.31
2023-02-25T11:08:58.637Z,-0.31
2023-02-25T11:11:29.682Z,-0.32
2023-02-25T11:14:03.710Z,-0.26
2023-02-25T11:16:32.595Z,-0.25
2023-02-25T11:19:02.019Z,-0.23
2023-02-25T11:21:31.541Z,-0.18
2023-02-25T11:24:03.191Z,-0.19
2023-02-25T11:26:32.950Z,-0.15
2023-02-25T11:29:01.699Z,-0.24
2023-02-25T11:31:33.344Z,-0.18
2023-02-25T11:34:03.407Z,-0.17
2023-02-25T11:36:31.788Z,-0.12
2023-02-25T11:39:08.797Z,-0.11
2023-02-25T11:41:36.519Z,-0.07
2023-02-25T11:44:34.219Z,-0.10
2023-02-25T11:47:07.301Z,-0.11
2023-02-25T11:49:44.654Z,-0.09
2023-02-25T11:52:15.812Z,-0.07
2023-02-25T11:54:50.818Z,-0.11
2023-02-25T11:57:24.526Z,-0.12
2023-02-25T11:59:58.897Z,-0.10
2023-02-25T12:02:31.969Z,-0.09
2023-02-25T12:05:09.031Z,-0.08
2023-02-25T12:08:11.881Z,-0.02
2023-02-25T12:10:53.326Z,0.03
2023-02-25T12:13:39.323Z,0.06
2023-02-25T12:16:25.100Z,0.05
2023-02-25T12:19:05.261Z,-0.03
2023-02-25T12:21:54.860Z,0.00
2023-02-25T12:24:30.339Z,0.00
2023-02-25T12:27:09.580Z,0.02
2023-02-25T12:29:56.973Z,0.02
2023-02-25T12:32:37.198Z,0.07
2023-02-25T12:35:18.677Z,0.11
2023-02-25T12:37:57.214Z,0.12
2023-02-25T12:40:31.382Z,0.09
2023-02-25T12:43:07.997Z,0.11
2023-02-25T12:45:42.883Z,0.06
2023-02-25T12:48:27.611Z,0.03
2023-02-25T12:51:10.563Z,-0.03
2023-02-25T12:53:45.321Z,0.03
2023-02-25T12:56:26.015Z,0.02
2023-02-25T12:59:07.424Z,-0.04
2023-02-25T13:01:44.040Z,-0.06
2023-02-25T13:04:24.401Z,0.01
2023-02-25T13:07:14.559Z,0.06
2023-02-25T13:09:57.990Z,0.09
2023-02-25T13:12:37.179Z,0.09
2023-02-25T13:15:10.936Z,0.03
2023-02-25T13:18:03.836Z,0.09
2023-02-25T13:20:41.156Z,0.10
2023-02-25T13:23:26.598Z,0.03
2023-02-25T13:25:59.805Z,0.00
2023-02-25T13:28:36.318Z,0.00
2023-02-25T13:31:08.457Z,-0.04
2023-02-25T13:33:46.401Z,-0.08
2023-02-25T13:36:26.364Z,-0.10
2023-02-25T13:39:04.148Z,-0.05
2023-02-25T13:41:37.194Z,-0.09
2023-02-25T13:44:28.686Z,-0.13
2023-02-25T13:47:13.940Z,-0.07
2023-02-25T13:49:58.776Z,-0.14
2023-02-25T13:52:31.796Z,-0.16
2023-02-25T13:55:17.361Z,-0.18
2023-02-25T13:57:57.658Z,-0.21
2023-02-25T14:00:38.428Z,-0.25
2023-02-25T14:03:16.664Z,-0.21
2023-02-25T14:06:00.474Z,-0.28
2023-02-25T14:08:37.205Z,-0.25
2023-02-25T14:11:24.110Z,-0.26
2023-02-25T14:14:10.027Z,-0.33
2023-02-25T14:16:52.413Z,-0.33
2023-02-25T14:19:31.220Z,-0.36
2023-02-25T14:22:20.098Z,-0.33
2023-02-25T14:24:51.460Z,-0.35
2023-02-25T14:27:26.154Z,-0.33
2023-02-25T14:30:01.039Z,-0.36
2023-02-25T14:32:37.841Z,-0.35
2023-02-25T14:35:16.748Z,-0.42
2023-02-25T14:37:49.969Z,-0.40
2023-02-25T14:40:27.244Z,-0.40
2023-02-25T14:43:02.158Z,-0.42
2023-02-25T14:45:33.625Z,-0.37
2023-02-25T14:48:03.170Z,-0.37
2023-02-25T14:50:32.769Z,-0.40
2023-02-25T14:53:25.768Z,-0.45
2023-02-25T14:56:05.400Z,-0.45
2023-02-25T14:58:51.063Z,-0.50
2023-02-25T15:01:27.365Z,-0.51
2023-02-25T15:04:11.907Z,-0.49
2023-02-25T15:06:51.707Z,-0.54
2023-02-25T15:09:25.890Z,-0.55
2023-02-25T15:12:10.668Z,-0.58
2023-02-25T15:14:54.020Z,-0.60
2023-02-25T15:17:38.417Z,-0.61
2023-02-25T15:20:26.670Z,-0.66
2023-02-25T15:22:59.649Z,-0.67
2023-02-25T15:25:38.571Z,-0.69
2023-02-25T15:28:34.537Z,-0.74
2023-02-25T15:31:07.260Z,-0.75
2023-02-25T15:33:35.894Z,-0.78
2023-02-25T15:36:20.214Z,-0.76
2023-02-25T15:38:48.899Z,-0.81
2023-02-25T15:41:38.694Z,-0.82
2023-02-25T15:44:21.520Z,-0.82
2023-02-25T15:46:51.362Z,-0.84
2023-02-25T15:49:23.969Z,-0.87
2023-02-25T15:51:52.878Z,-0.88
2023-02-25T15:54:39.375Z,-0.92
2023-02-25T15:57:32.073Z,-0.94
2023-02-25T15:59:59.738Z,-0.98
2023-02-25T16:02:42.313Z,-1.00
2023-02-25T16:05:21.670Z,-1.04
2023-02-25T16:07:51.216Z,-1.05
2023-02-25T16:10:25.495Z,-1.10
2023-02-25T16:12:55.392Z,-1.14
2023-02-25T16:15:27.066Z,-1.18
2023-02-25T16:17:57.617Z,-1.14
2023-02-25T16:20:27.273Z,-1.23
2023-02-25T16:22:57.525Z,-1.20
2023-02-25T16:25:31.185Z,-1.29
2023-02-25T16:28:04.564Z,-1.28
2023-02-25T16:30:37.777Z,-1.32
2023-02-25T16:33:10.384Z,-1.35
2023-02-25T16:35:40.923Z,-1.43
2023-02-25T16:38:12.894Z,-1.47
2023-02-25T16:40:44.669Z,-1.54
2023-02-25T16:43:13.712Z,-1.54
2023-02-25T16:45:43.349Z,-1.56
2023-02-25T16:48:17.002Z,-1.61
2023-02-25T16:50:47.341Z,-1.69
2023-02-25T16:53:19.322Z,-1.73
2023-02-25T16:55:47.060Z,-1.76
2023-02-25T16:58:21.423Z,-1.79
2023-02-25T17:00:53.911Z,-1.85
2023-02-25T17:03:23.787Z,-1.91
2023-02-25T17:06:05.481Z,-1.95
2023-02-25T17:08:33.688Z,-2.00
2023-02-25T17:11:02.591Z,-2.14
2023-02-25T17:13:33.130Z,-2.20
2023-02-25T17:16:03.835Z,-2.28
2023-02-25T17:18:33.931Z,-2.33
2023-02-25T17:21:03.232Z,-2.40
2023-02-25T17:23:31.353Z,-2.45
2023-02-25T17:25:59.615Z,-2.50
2023-02-25T17:28:29.186Z,-2.56
2023-02-25T17:31:05.058Z,-2.64
2023-02-25T17:33:34.645Z,-2.69
2023-02-25T17:36:10.025Z,-2.86
2023-02-25T17:38:39.222Z,-2.85
2023-02-25T17:41:07.101Z,-2.85
2023-02-25T17:43:35.541Z,-2.89
2023-02-25T17:46:05.007Z,-2.92
2023-02-25T17:48:38.006Z,-2.97
2023-02-25T17:51:07.819Z,-3.03
2023-02-25T17:53:40.214Z,-3.07
2023-02-25T17:56:17.109Z,-3.03
2023-02-25T17:58:45.053Z,-3.08
2023-02-25T18:01:23.943Z,-3.07
2023-02-25T18:03:53.963Z,-2.98
2023-02-25T18:06:45.706Z,-2.94
2023-02-25T18:09:29.348Z,-3.01
2023-02-25T18:11:58.956Z,-3.07
2023-02-25T18:14:29.185Z,-2.97
2023-02-25T18:16:56.975Z,-2.96
2023-02-25T18:19:28.728Z,-3.01
2023-02-25T18:21:56.537Z,-3.01
2023-02-25T18:24:24.971Z,-3.07
2023-02-25T18:27:16.845Z,-3.05
2023-02-25T18:29:44.460Z,-3.05
2023-02-25T18:32:12.919Z,-3.10
2023-02-25T18:34:42.269Z,-3.16
2023-02-25T18:37:12.297Z,-3.19
2023-02-25T18:39:39.981Z,-3.19
2023-02-25T18:42:07.657Z,-3.23
2023-02-25T18:44:35.389Z,-3.23
2023-02-25T18:47:03.007Z,-3.25
2023-02-25T18:49:30.674Z,-3.24
2023-02-25T18:51:59.736Z,-3.29
2023-02-25T18:54:27.338Z,-3.37
2023-02-25T18:56:55.073Z,-3.35
2023-02-25T18:59:22.744Z,-3.31
2023-02-25T19:01:50.596Z,-3.35
2023-02-25T19:04:19.662Z,-3.39
2023-02-25T19:06:47.432Z,-3.41
2023-02-25T19:09:16.556Z,-3.38
2023-02-25T19:11:44.249Z,-3.42
2023-02-25T19:14:16.973Z,-3.48
2023-02-25T19:16:44.706Z,-3.54
2023-02-25T19:19:14.113Z,-3.51
2023-02-25T19:21:42.278Z,-3.51
2023-02-25T19:24:12.724Z,-3.58
2023-02-25T19:26:41.814Z,-3.61
2023-02-25T19:29:09.477Z,-3.65
2023-02-25T19:31:37.284Z,-3.65
2023-02-25T19:34:04.996Z,-3.72
2023-02-25T19:36:32.671Z,-3.70
2023-02-25T19:39:00.390Z,-3.73
2023-02-25T19:41:28.008Z,-3.75
2023-02-25T19:43:57.076Z,-3.78
2023-02-25T19:46:25.027Z,-3.76
2023-02-25T19:48:52.964Z,-3.87
2023-02-25T19:51:21.066Z,-3.86
2023-02-25T19:53:48.705Z,-3.88
2023-02-25T19:56:16.851Z,-3.86
2023-02-25T19:58:44.530Z,-3.85
2023-02-25T20:01:13.719Z,-3.92
2023-02-25T20:03:41.589Z,-3.91
2023-02-25T20:06:12.917Z,-3.88
2023-02-25T20:08:41.117Z,-3.93
2023-02-25T20:11:09.166Z,-3.95
2023-02-25T20:13:38.489Z,-3.94
2023-02-25T20:16:06.762Z,-3.95
2023-02-25T20:18:35.914Z,-3.97
2023-02-25T20:21:04.165Z,-4.05
2023-02-25T20:23:31.833Z,-4.15
2023-02-25T20:26:03.733Z,-4.16
2023-02-25T20:28:31.489Z,-4.20
2023-02-25T20:31:03.808Z,-4.19
2023-02-25T20:33:31.527Z,-4.21
2023-02-25T20:36:01.179Z,-4.25
2023-02-25T20:38:32.590Z,-4.25
2023-02-25T20:41:00.313Z,-4.27
2023-02-25T20:43:28.066Z,-4.28
2023-02-25T20:45:56.067Z,-4.32
2023-02-25T20:48:27.532Z,-4.28
2023-02-25T20:50:55.785Z,-4.30
2023-02-25T20:53:25.488Z,-4.31
2023-02-25T20:55:55.028Z,-4.30
2023-02-25T20:58:22.683Z,-4.33
2023-02-25T21:00:50.424Z,-4.30
2023-02-25T21:03:18.220Z,-4.28
2023-02-25T21:05:46.268Z,-4.25
2023-02-25T21:08:14.732Z,-4.19
2023-02-25T21:10:44.272Z,-4.12
2023-02-25T21:13:11.903Z,-4.06
2023-02-25T21:15:39.577Z,-4.02
2023-02-25T21:18:07.184Z,-3.94
2023-02-25T21:20:34.904Z,-3.95
2023-02-25T21:23:02.576Z,-3.99
2023-02-25T21:25:32.006Z,-3.98
2023-02-25T21:28:01.923Z,-4.00
2023-02-25T21:30:29.715Z,-4.00
2023-02-25T21:32:57.631Z,-4.02
2023-02-25T21:35:25.244Z,-4.07
2023-02-25T21:37:52.864Z,-4.08
2023-02-25T21:40:21.111Z,-4.10
2023-02-25T21:42:49.861Z,-4.06
2023-02-25T21:45:18.876Z,-4.04
2023-02-25T21:47:46.593Z,-4.08
2023-02-25T21:50:14.264Z,-4.11
2023-02-25T21:52:41.930Z,-4.12
2023-02-25T21:55:10.223Z,-4.13
2023-02-25T21:57:38.395Z,-4.16
2023-02-25T22:00:10.385Z,-4.12
2023-02-25T22:02:39.602Z,-4.14
2023-02-25T22:05:07.769Z,-4.12
2023-02-25T22:07:35.476Z,-4.14
2023-02-25T22:10:03.156Z,-4.06
2023-02-25T22:12:30.863Z,-4.06
2023-02-25T22:14:58.530Z,-4.04
2023-02-25T22:17:26.177Z,-4.06
2023-02-25T22:19:55.233Z,-4.03
2023-02-25T22:22:22.928Z,-4.01
2023-02-25T22:24:50.645Z,-3.99
2023-02-25T22:27:18.251Z,-3.98
2023-02-25T22:29:45.933Z,-3.96
2023-02-25T22:32:13.706Z,-3.94
2023-02-25T22:34:41.601Z,-3.92
2023-02-25T22:37:10.744Z,-3.90
2023-02-25T22:39:38.348Z,-3.89
2023-02-25T22:42:06.101Z,-3.85
2023-02-25T22:44:33.832Z,-3.88
2023-02-25T22:47:01.695Z,-3.85
2023-02-25T22:49:29.364Z,-3.82
2023-02-25T22:51:56.983Z,-3.79
2023-02-25T22:54:25.976Z,-3.73
2023-02-25T22:56:53.688Z,-3.66
2023-02-25T22:59:21.697Z,-3.62
2023-02-25T23:01:49.376Z,-3.59
2023-02-25T23:04:17.067Z,-3.60
2023-02-25T23:06:45.498Z,-3.57
2023-02-25T23:09:13.817Z,-3.53
2023-02-25T23:11:43.933Z,-3.53
2023-02-25T23:14:12.082Z,-3.55
2023-02-25T23:16:41.479Z,-3.59
2023-02-25T23:19:10.889Z,-3.62
2023-02-25T23:21:39.322Z,-3.63
2023-02-25T23:24:08.126Z,-3.60
2023-02-25T23:26:39.059Z,-3.60
2023-02-25T23:29:08.929Z,-3.71
2023-02-25T23:31:37.660Z,-3.79
2023-02-25T23:34:07.760Z,-3.89
2023-02-25T23:36:36.039Z,-3.99
2023-02-25T23:39:05.100Z,-4.06
2023-02-25T23:41:33.087Z,-4.00
2023-02-25T23:44:01.791Z,-4.05
2023-02-25T23:46:32.117Z,-4.08
2023-02-25T23:49:00.917Z,-4.07
2023-02-25T23:51:29.095Z,-4.03
2023-02-25T23:53:57.256Z,-4.08
2023-02-25T23:56:27.265Z,-4.04
2023-02-25T23:58:55.867Z,-4.08
